createdAt,value
2022-08-22T00:03:32.882Z,79.58
2022-08-22T00:18:29.126Z,81.77
2022-08-22T00:33:25.459Z,83.12
2022-08-22T00:48:21.470Z,86.76
2022-08-22T01:03:17.740Z,87.67
2022-08-22T01:18:13.999Z,87.12
2022-08-22T01:33:09.546Z,87.2
2022-08-22T01:48:05.469Z,90.45
2022-08-22T02:03:01.546Z,89.5
2022-08-22T02:17:57.984Z,92.48
2022-08-22T02:32:53.954Z,91.18
2022-08-22T02:47:49.990Z,93.56
2022-08-22T03:02:46.182Z,96.74
2022-08-22T03:17:42.446Z,96.13
2022-08-22T03:32:38.843Z,99.15
2022-08-22T03:47:35.093Z,100
2022-08-22T04:02:42.755Z,100
2022-08-22T04:17:27.014Z,100
2022-08-22T04:32:22.963Z,100
2022-08-22T04:47:19.055Z,100
2022-08-22T05:02:15.200Z,100
2022-08-22T05:17:11.329Z,100
2022-08-22T05:32:07.547Z,100
2022-08-22T05:47:03.899Z,100
2022-08-22T06:02:00.772Z,96.46
2022-08-22T06:16:56.689Z,92.86
2022-08-22T06:31:53.394Z,87.34
2022-08-22T06:46:50.045Z,83.3
2022-08-22T07:01:46.505Z,78.23
2022-08-22T07:16:42.853Z,74.12
2022-08-22T07:31:39.093Z,72.79
2022-08-22T07:46:35.625Z,70.08
2022-08-22T08:01:32.537Z,65.27
2022-08-22T08:16:29.473Z,52.43
2022-08-22T08:31:26.695Z,58.46
2022-08-22T08:46:23.081Z,54.58
2022-08-22T09:01:19.827Z,48.78
2022-08-22T09:16:16.663Z,44.13
2022-08-22T09:31:16.761Z,39.92
2022-08-22T09:46:11.503Z,40.51
2022-08-22T10:01:08.918Z,37.36
2022-08-22T10:16:06.657Z,40.15
2022-08-22T10:31:04.001Z,30.21
2022-08-22T10:46:01.691Z,35.13
2022-08-22T11:00:57.974Z,35.36
2022-08-22T11:15:54.927Z,33.1
2022-08-22T11:30:52.079Z,31.47
2022-08-22T11:45:48.914Z,33.25
2022-08-22T12:00:45.539Z,29.78
2022-08-22T12:15:42.141Z,27.39
2022-08-22T12:45:36.063Z,26.53
2022-08-22T13:00:32.941Z,28.24
2022-08-22T13:15:28.276Z,27.92
2022-08-22T13:30:23.728Z,28.33
2022-08-22T13:45:19.210Z,28.22
2022-08-22T14:00:28.940Z,26.63
2022-08-22T14:15:11.449Z,27.55
2022-08-22T14:30:09.611Z,27.94
2022-08-22T14:45:06.587Z,28.33
2022-08-22T14:59:59.467Z,30.44
2022-08-22T15:14:55.169Z,27.93
2022-08-22T15:29:51.646Z,28.23
2022-08-22T15:44:48.185Z,30.19
2022-08-22T15:59:48.329Z,29.98
2022-08-22T16:14:41.015Z,31.28
2022-08-22T16:29:37.655Z,30.98
2022-08-22T16:44:33.091Z,31.72
2022-08-22T16:59:28.952Z,35.09
2022-08-22T17:14:24.808Z,33.8
2022-08-22T17:29:20.974Z,34.1
2022-08-22T17:44:16.306Z,34.41
2022-08-22T17:59:12.798Z,36.58
2022-08-22T18:14:09.217Z,38.14
2022-08-22T18:29:05.547Z,41.04
2022-08-22T18:44:01.896Z,41.58
2022-08-22T18:59:01.905Z,43.1
2022-08-22T19:13:53.332Z,44.27
2022-08-22T19:28:49.681Z,44.4
2022-08-22T19:43:45.851Z,48.05
2022-08-22T19:58:41.815Z,49.19
2022-08-22T20:13:37.526Z,52.28
2022-08-22T20:28:33.711Z,52.9
2022-08-22T20:43:29.760Z,52.86
2022-08-22T20:58:25.922Z,53.96
2022-08-22T22:13:04.854Z,65.73
2022-08-22T22:28:01.560Z,66.41
2022-08-22T22:42:57.096Z,69.14
2022-08-22T22:57:58.838Z,70.52
2022-08-22T23:12:49.391Z,72.67
2022-08-22T23:27:45.351Z,74.05
2022-08-22T23:42:40.650Z,76.66
2022-08-22T23:57:36.900Z,77.24
